createdAt,value
2018-09-28T00:00:03.449Z,64.10
2018-09-28T00:02:30.939Z,63.10
2018-09-28T00:04:58.535Z,63.50
2018-09-28T00:07:26.130Z,63.70
2018-09-28T00:09:53.624Z,64.20
2018-09-28T00:12:21.251Z,63.20
2018-09-28T00:14:48.757Z,62.80
2018-09-28T00:17:16.294Z,62.40
2018-09-28T00:19:44.040Z,62.50
2018-09-28T00:22:11.588Z,62.40
2018-09-28T00:24:39.186Z,63.40
2018-09-28T00:27:06.923Z,63.60
2018-09-28T00:29:34.644Z,63.00
2018-09-28T00:32:02.341Z,63.50
2018-09-28T00:34:29.816Z,63.10
2018-09-28T00:36:57.427Z,63.60
2018-09-28T00:39:25.010Z,63.80
2018-09-28T00:41:52.461Z,64.20
2018-09-28T00:44:20.030Z,64.70
2018-09-28T00:46:47.519Z,65.10
2018-09-28T00:49:15.664Z,65.00
2018-09-28T00:51:43.255Z,65.30
2018-09-28T00:54:10.876Z,65.70
2018-09-28T00:56:38.355Z,65.80
2018-09-28T00:59:06.456Z,66.30
2018-09-28T01:01:33.966Z,66.30
2018-09-28T01:04:01.471Z,66.30
2018-09-28T01:06:28.993Z,66.00
2018-09-28T01:08:57.364Z,65.70
2018-09-28T01:11:25.292Z,64.90
2018-09-28T01:13:52.804Z,64.90
2018-09-28T01:16:20.985Z,65.60
2018-09-28T01:18:48.565Z,65.10
2018-09-28T01:21:17.019Z,65.70
2018-09-28T01:23:44.588Z,65.90
2018-09-28T01:26:12.908Z,65.90
2018-09-28T01:28:40.504Z,65.80
2018-09-28T01:31:08.023Z,65.90
2018-09-28T01:33:36.146Z,66.50
2018-09-28T01:36:03.667Z,66.40
2018-09-28T01:38:32.135Z,65.20
2018-09-28T01:40:59.624Z,65.80
2018-09-28T01:43:27.127Z,66.40
2018-09-28T01:45:54.625Z,66.70
2018-09-28T01:48:22.628Z,66.90
2018-09-28T01:50:50.116Z,66.60
2018-09-28T01:53:19.024Z,66.50
2018-09-28T01:55:46.537Z,66.30
2018-09-28T01:58:14.197Z,66.80
2018-09-28T02:00:42.698Z,66.70
2018-09-28T02:03:11.892Z,66.80
2018-09-28T02:05:39.348Z,66.90
2018-09-28T02:10:35.779Z,67.10
2018-09-28T02:13:03.240Z,67.80
2018-09-28T02:15:30.715Z,67.50
2018-09-28T02:17:58.169Z,66.90
2018-09-28T02:20:26.113Z,66.50
2018-09-28T02:22:53.632Z,66.70
2018-09-28T02:25:21.235Z,66.40
2018-09-28T02:27:48.696Z,67.00
2018-09-28T02:30:16.352Z,66.50
2018-09-28T02:32:43.812Z,67.90
2018-09-28T02:35:11.573Z,67.90
2018-09-28T02:37:39.084Z,66.70
2018-09-28T02:40:08.179Z,67.40
2018-09-28T02:42:35.724Z,67.10
2018-09-28T02:45:03.242Z,67.60
2018-09-28T02:47:31.176Z,67.50
2018-09-28T02:49:58.745Z,67.90
2018-09-28T02:52:26.336Z,68.50
2018-09-28T02:54:53.905Z,67.60
2018-09-28T02:57:21.377Z,68.10
2018-09-28T02:59:48.990Z,68.30
2018-09-28T03:02:16.515Z,68.10
2018-09-28T03:04:43.948Z,68.00
2018-09-28T03:07:12.305Z,68.10
2018-09-28T03:09:39.800Z,68.10
2018-09-28T03:12:08.040Z,68.00
2018-09-28T03:14:35.636Z,67.50
2018-09-28T03:17:03.187Z,68.80
2018-09-28T03:19:30.696Z,68.50
2018-09-28T03:21:58.178Z,68.00
2018-09-28T03:24:26.137Z,68.40
2018-09-28T03:26:53.575Z,68.20
2018-09-28T03:29:22.175Z,68.50
2018-09-28T03:31:49.736Z,68.90
2018-09-28T03:34:17.274Z,68.30
2018-09-28T03:36:44.716Z,69.10
2018-09-28T03:39:12.271Z,68.80
2018-09-28T03:41:39.704Z,68.70
2018-09-28T03:44:08.033Z,68.40
2018-09-28T03:46:35.621Z,69.80
2018-09-28T03:49:03.165Z,69.00
2018-09-28T03:53:58.262Z,69.50
2018-09-28T03:56:26.088Z,69.70
2018-09-28T04:01:20.938Z,70.50
2018-09-28T04:06:15.932Z,70.60
2018-09-28T04:08:43.424Z,69.80
2018-09-28T04:11:10.984Z,70.40
2018-09-28T04:13:38.540Z,70.40
2018-09-28T04:16:06.280Z,69.50
2018-09-28T04:18:33.818Z,68.10
2018-09-28T04:21:01.460Z,68.20
2018-09-28T04:23:29.077Z,68.40
2018-09-28T04:25:56.532Z,68.20
2018-09-28T04:28:24.875Z,68.30
2018-09-28T04:30:52.992Z,68.00
2018-09-28T04:33:20.564Z,67.80
2018-09-28T04:35:48.180Z,67.60
2018-09-28T04:38:16.379Z,67.50
2018-09-28T04:43:11.471Z,68.30
2018-09-28T04:45:39.636Z,69.60
2018-09-28T04:48:07.290Z,70.10
2018-09-28T04:50:34.808Z,69.50
2018-09-28T04:53:02.338Z,68.50
2018-09-28T04:55:29.828Z,69.50
2018-09-28T04:57:57.440Z,70.00
2018-09-28T05:00:25.016Z,69.80
2018-09-28T05:02:52.464Z,69.90
2018-09-28T05:05:19.984Z,70.60
2018-09-28T05:07:47.405Z,70.40
2018-09-28T05:10:15.317Z,70.50
2018-09-28T05:12:42.977Z,71.00
2018-09-28T05:15:10.654Z,70.00
2018-09-28T05:17:38.344Z,70.50
2018-09-28T05:20:08.122Z,70.30
2018-09-28T05:22:35.858Z,69.80
2018-09-28T05:27:30.800Z,68.70
2018-09-28T05:29:58.346Z,68.90
2018-09-28T05:32:26.070Z,68.50
2018-09-28T05:34:53.476Z,68.90
2018-09-28T05:37:21.111Z,68.20
2018-09-28T05:39:48.565Z,68.80
2018-09-28T05:42:16.076Z,68.20
2018-09-28T05:44:43.760Z,68.10
2018-09-28T05:47:11.968Z,68.60
2018-09-28T05:49:39.378Z,67.60
2018-09-28T05:52:07.770Z,68.80
2018-09-28T05:54:35.528Z,67.60
2018-09-28T05:57:03.102Z,68.00
2018-09-28T05:59:36.525Z,68.70
2018-09-28T06:02:09.797Z,68.50
2018-09-28T06:04:42.961Z,67.90
2018-09-28T06:07:10.573Z,68.00
2018-09-28T06:09:38.152Z,67.70
2018-09-28T06:12:05.715Z,68.20
2018-09-28T06:14:33.275Z,67.60
2018-09-28T06:17:00.747Z,67.50
2018-09-28T06:19:28.307Z,68.20
2018-09-28T06:21:55.906Z,68.10
2018-09-28T06:24:23.646Z,67.10
2018-09-28T06:26:51.532Z,67.70
2018-09-28T06:29:19.183Z,66.80
2018-09-28T06:31:47.579Z,67.30
2018-09-28T06:36:43.375Z,67.90
2018-09-28T06:39:11.611Z,68.50
2018-09-28T06:41:39.700Z,68.50
2018-09-28T06:46:35.082Z,67.90
2018-09-28T06:49:03.198Z,68.00
2018-09-28T06:51:30.674Z,68.00
2018-09-28T06:53:58.294Z,68.00
2018-09-28T06:56:25.706Z,68.00
2018-09-28T06:58:53.363Z,68.80
2018-09-28T07:01:20.795Z,68.20
2018-09-28T07:03:48.368Z,68.00
2018-09-28T07:06:15.917Z,67.70
2018-09-28T07:08:43.456Z,67.00
2018-09-28T07:11:11.122Z,65.50
2018-09-28T07:13:39.290Z,66.10
2018-09-28T07:18:34.389Z,64.10
2018-09-28T07:23:29.981Z,62.20
2018-09-28T07:25:57.541Z,61.20
2018-09-28T07:28:25.024Z,60.50
2018-09-28T07:30:52.540Z,60.30
2018-09-28T07:35:48.202Z,59.10
2018-09-28T07:38:15.696Z,58.30
2018-09-28T07:40:43.189Z,58.10
2018-09-28T07:43:11.009Z,58.60
2018-09-28T07:45:38.728Z,57.40
2018-09-28T07:48:06.306Z,57.10
2018-09-28T07:50:33.851Z,56.00
2018-09-28T07:53:01.335Z,54.60
2018-09-28T07:55:29.031Z,52.20
2018-09-28T07:57:56.673Z,54.20
2018-09-28T08:00:24.173Z,55.20
2018-09-28T08:02:51.721Z,55.70
2018-09-28T08:05:19.249Z,54.50
2018-09-28T08:07:46.713Z,54.70
2018-09-28T08:10:14.820Z,54.30
2018-09-28T08:12:42.427Z,52.50
2018-09-28T08:22:34.832Z,50.30
2018-09-28T08:25:03.033Z,50.60
2018-09-28T08:27:30.537Z,49.60
2018-09-28T08:29:58.083Z,50.10
2018-09-28T08:32:25.573Z,49.40
2018-09-28T08:34:53.086Z,48.40
2018-09-28T08:37:20.509Z,44.20
2018-09-28T08:39:48.105Z,45.00
2018-09-28T08:42:15.684Z,45.10
2018-09-28T08:44:43.250Z,43.30
2018-09-28T08:47:10.843Z,42.80
2018-09-28T08:49:38.290Z,41.90
2018-09-28T08:52:05.813Z,39.80
2018-09-28T08:54:33.303Z,40.30
2018-09-28T08:57:00.901Z,39.30
2018-09-28T08:59:28.353Z,39.80
2018-09-28T09:01:55.934Z,39.30
2018-09-28T09:04:23.618Z,38.40
2018-09-28T09:06:51.157Z,34.80
2018-09-28T09:09:18.639Z,38.00
2018-09-28T09:11:47.060Z,35.40
2018-09-28T09:14:14.838Z,36.10
2018-09-28T09:16:42.432Z,35.40
2018-09-28T09:19:12.868Z,36.10
2018-09-28T09:21:40.673Z,36.10
2018-09-28T09:24:08.220Z,34.00
2018-09-28T09:26:35.991Z,34.60
2018-09-28T09:29:03.794Z,33.00
2018-09-28T09:31:31.318Z,31.90
2018-09-28T09:33:58.852Z,31.90
2018-09-28T09:36:27.123Z,31.90
2018-09-28T09:38:54.608Z,32.60
2018-09-28T09:41:22.220Z,32.30
2018-09-28T09:43:49.919Z,32.30
2018-09-28T09:46:17.440Z,32.70
2018-09-28T09:48:45.101Z,33.30
2018-09-28T09:51:12.712Z,31.80
2018-09-28T09:56:07.714Z,31.10
2018-09-28T09:59:59.812Z,31.40
2018-09-28T10:02:33.045Z,31.50
2018-09-28T10:05:00.644Z,30.00
2018-09-28T10:07:28.288Z,29.50
2018-09-28T10:09:55.821Z,30.00
2018-09-28T10:12:23.388Z,30.70
2018-09-28T10:14:51.699Z,28.40
2018-09-28T10:17:19.432Z,27.90
2018-09-28T10:22:14.513Z,26.30
2018-09-28T10:24:42.191Z,26.00
2018-09-28T10:27:10.270Z,26.50
2018-09-28T10:29:37.845Z,25.00
2018-09-28T10:32:05.496Z,25.10
2018-09-28T10:34:34.189Z,25.40
2018-09-28T10:37:01.945Z,25.30
2018-09-28T10:39:29.418Z,23.60
2018-09-28T10:41:57.083Z,22.70
2018-09-28T10:44:25.252Z,24.50
2018-09-28T10:46:52.804Z,23.10
2018-09-28T10:49:20.338Z,23.60
2018-09-28T10:51:48.187Z,22.20
2018-09-28T10:54:15.755Z,24.30
2018-09-28T10:56:43.249Z,22.40
2018-09-28T10:59:10.810Z,22.80
2018-09-28T11:01:39.023Z,23.40
2018-09-28T11:04:06.518Z,25.20
2018-09-28T11:13:54.844Z,29.00
2018-09-28T11:16:23.090Z,28.30
2018-09-28T11:18:50.622Z,27.70
2018-09-28T11:21:19.240Z,27.60
2018-09-28T11:23:46.749Z,28.70
2018-09-28T11:26:14.369Z,28.80
2018-09-28T11:28:41.962Z,29.30
2018-09-28T11:31:10.028Z,29.00
2018-09-28T11:33:38.273Z,31.50
2018-09-28T11:36:05.764Z,29.80
2018-09-28T11:38:33.605Z,28.70
2018-09-28T11:41:01.628Z,30.30
2018-09-28T11:43:29.477Z,30.70
2018-09-28T11:45:57.053Z,30.60
2018-09-28T11:48:24.521Z,30.40
2018-09-28T11:50:52.326Z,31.10
2018-09-28T11:53:21.316Z,29.70
2018-09-28T11:55:49.417Z,29.60
2018-09-28T11:58:16.962Z,30.60
2018-09-28T12:00:44.609Z,31.00
2018-09-28T12:03:14.361Z,30.50
2018-09-28T12:08:09.645Z,31.00
2018-09-28T12:10:38.088Z,29.90
2018-09-28T12:13:06.273Z,29.40
2018-09-28T12:15:35.169Z,29.90
2018-09-28T12:18:02.724Z,30.50
2018-09-28T12:20:30.240Z,29.00
2018-09-28T12:22:59.492Z,29.50
2018-09-28T12:25:26.952Z,29.80
2018-09-28T12:27:54.489Z,31.20
2018-09-28T12:30:23.138Z,31.00
2018-09-28T12:35:18.338Z,30.70
2018-09-28T12:37:45.966Z,33.20
2018-09-28T12:40:13.670Z,34.00
2018-09-28T12:42:41.947Z,34.50
2018-09-28T12:45:09.612Z,35.00
2018-09-28T12:52:32.651Z,37.40
2018-09-28T12:55:00.143Z,36.90
2018-09-28T12:57:27.700Z,37.40
2018-09-28T12:59:55.253Z,39.10
2018-09-28T13:02:22.853Z,37.60
2018-09-28T13:04:50.418Z,38.00
2018-09-28T13:07:17.933Z,39.30
2018-09-28T13:09:45.432Z,39.40
2018-09-28T13:17:08.464Z,41.70
2018-09-28T13:19:36.133Z,41.10
2018-09-28T13:22:03.844Z,41.50
2018-09-28T13:29:32.761Z,43.30
2018-09-28T13:34:28.392Z,44.10
2018-09-28T13:36:55.902Z,44.50
2018-09-28T13:39:23.496Z,45.80
2018-09-28T13:41:50.975Z,46.40
2018-09-28T13:44:18.520Z,45.50
2018-09-28T13:46:46.027Z,46.00
2018-09-28T13:49:13.474Z,46.60
2018-09-28T13:51:41.018Z,46.60
2018-09-28T13:54:08.541Z,46.90
2018-09-28T13:56:36.745Z,46.80
2018-09-28T13:59:04.225Z,47.50
2018-09-28T14:01:31.852Z,47.80
2018-09-28T14:04:00.071Z,47.20
2018-09-28T14:06:27.832Z,48.00
2018-09-28T14:08:55.996Z,47.20
2018-09-28T14:11:23.494Z,48.00
2018-09-28T14:13:51.047Z,48.50
2018-09-28T14:16:18.722Z,48.70
2018-09-28T14:18:46.383Z,48.60
2018-09-28T14:21:13.963Z,49.30
2018-09-28T14:23:41.672Z,49.30
2018-09-28T14:26:09.276Z,49.40
2018-09-28T14:28:36.993Z,49.40
2018-09-28T14:31:04.452Z,49.70
2018-09-28T14:33:32.010Z,49.20
2018-09-28T14:35:59.674Z,49.20
2018-09-28T14:38:27.327Z,49.30
2018-09-28T14:40:54.864Z,51.00
2018-09-28T14:43:22.482Z,50.20
2018-09-28T14:45:50.053Z,50.70
2018-09-28T14:48:17.724Z,50.70
2018-09-28T14:50:45.190Z,51.00
2018-09-28T14:53:12.772Z,50.80
2018-09-28T14:55:41.731Z,52.40
2018-09-28T15:11:52.012Z,55.10
2018-09-28T15:14:19.573Z,54.90
2018-09-28T15:16:47.796Z,55.60
2018-09-28T15:19:16.144Z,54.70
2018-09-28T15:21:43.755Z,55.70
2018-09-28T15:24:11.308Z,56.40
2018-09-28T15:29:06.808Z,55.70
2018-09-28T15:31:35.011Z,55.60
2018-09-28T15:38:57.773Z,55.00
2018-09-28T15:41:25.445Z,55.10
2018-09-28T15:43:53.617Z,55.50
2018-09-28T15:46:21.368Z,55.50
2018-09-28T15:48:49.637Z,55.30
2018-09-28T15:51:17.353Z,55.80
2018-09-28T15:53:44.956Z,55.80
2018-09-28T15:56:12.663Z,55.00
2018-09-28T15:58:40.169Z,54.00
2018-09-28T16:01:07.826Z,54.60
2018-09-28T16:03:35.478Z,54.30
2018-09-28T16:06:03.127Z,54.00
2018-09-28T16:08:30.753Z,54.00
2018-09-28T16:10:58.663Z,54.20
2018-09-28T16:13:26.261Z,54.20
2018-09-28T16:15:54.105Z,54.20
2018-09-28T16:18:22.013Z,53.40
2018-09-28T16:20:49.619Z,53.30
2018-09-28T16:23:17.224Z,53.80
2018-09-28T16:25:44.862Z,52.20
2018-09-28T16:28:12.372Z,52.80
2018-09-28T16:30:39.961Z,52.00
2018-09-28T16:33:07.521Z,50.60
2018-09-28T16:35:35.133Z,51.30
2018-09-28T16:38:02.764Z,51.50
2018-09-28T16:40:30.494Z,50.50
2018-09-28T16:45:25.703Z,50.60
2018-09-28T16:50:21.596Z,50.50
2018-09-28T16:52:50.970Z,50.50
2018-09-28T16:55:18.523Z,51.00
2018-09-28T16:57:46.898Z,50.60
2018-09-28T17:00:15.359Z,51.10
2018-09-28T17:05:13.519Z,50.50
2018-09-28T17:07:42.881Z,50.50
2018-09-28T17:10:10.633Z,50.50
2018-09-28T17:12:40.256Z,50.20
2018-09-28T17:15:07.995Z,49.60
2018-09-28T17:17:35.605Z,49.80
2018-09-28T17:20:03.677Z,48.70
2018-09-28T17:24:59.908Z,49.00
2018-09-28T17:27:27.531Z,49.00
2018-09-28T17:30:00.490Z,50.00
2018-09-28T17:32:28.506Z,49.50
2018-09-28T17:34:56.095Z,49.40
2018-09-28T17:37:23.613Z,49.80
2018-09-28T17:39:52.270Z,49.30
2018-09-28T17:42:20.024Z,48.90
2018-09-28T17:44:47.680Z,49.10
2018-09-28T17:47:15.199Z,49.00
2018-09-28T17:49:43.753Z,49.50
2018-09-28T17:52:11.471Z,48.00
2018-09-28T17:54:40.060Z,49.10
2018-09-28T17:57:08.351Z,49.70
2018-09-28T17:59:36.677Z,48.70
2018-09-28T18:02:04.672Z,48.90
2018-09-28T18:04:32.182Z,49.00
2018-09-28T18:07:02.319Z,49.00
2018-09-28T18:09:32.739Z,48.70
2018-09-28T18:12:00.840Z,49.10
2018-09-28T18:14:28.703Z,48.70
2018-09-28T18:16:56.967Z,49.60
2018-09-28T18:19:25.008Z,49.30
2018-09-28T18:21:53.061Z,48.90
2018-09-28T18:24:20.552Z,49.00
2018-09-28T18:26:48.213Z,49.20
2018-09-28T18:29:16.429Z,49.20
2018-09-28T18:31:44.064Z,48.80
2018-09-28T18:36:39.164Z,48.60
2018-09-28T18:39:08.887Z,49.40
2018-09-28T18:41:36.876Z,49.40
2018-09-28T18:44:04.818Z,48.90
2018-09-28T18:46:32.579Z,49.20
2018-09-28T18:49:00.730Z,49.40
2018-09-28T18:51:28.896Z,49.80
2018-09-28T18:56:24.729Z,49.70
2018-09-28T18:58:52.328Z,49.70
2018-09-28T19:01:19.908Z,49.70
2018-09-28T19:03:47.578Z,49.70
2018-09-28T19:06:15.458Z,49.80
2018-09-28T19:08:43.744Z,50.10
2018-09-28T19:11:11.872Z,51.10
2018-09-28T19:13:39.703Z,51.40
2018-09-28T19:18:35.071Z,52.50
2018-09-28T19:21:04.255Z,52.70
2018-09-28T19:23:31.780Z,53.40
2018-09-28T19:26:00.165Z,53.10
2018-09-28T19:28:27.704Z,53.10
2018-09-28T19:30:55.315Z,53.50
2018-09-28T19:33:22.801Z,53.50
2018-09-28T19:35:50.348Z,53.50
2018-09-28T19:38:18.791Z,53.50
2018-09-28T19:43:16.271Z,53.50
2018-09-28T19:45:47.090Z,53.80
2018-09-28T19:48:14.820Z,53.70
2018-09-28T19:50:42.450Z,54.00
2018-09-28T19:53:12.303Z,54.10
2018-09-28T19:55:40.473Z,54.30
2018-09-28T19:58:08.404Z,54.20
2018-09-28T20:00:37.243Z,54.50
2018-09-28T20:03:05.305Z,54.60
2018-09-28T20:05:33.148Z,54.80
2018-09-28T20:08:01.813Z,54.90
2018-09-28T20:10:30.527Z,54.80
2018-09-28T20:12:58.213Z,54.50
2018-09-28T20:15:25.937Z,54.90
2018-09-28T20:17:54.109Z,54.50
2018-09-28T20:20:21.680Z,54.50
2018-09-28T20:22:49.916Z,54.70
2018-09-28T20:25:18.136Z,54.80
2018-09-28T20:27:45.916Z,54.50
2018-09-28T20:30:13.594Z,55.20
2018-09-28T20:32:42.381Z,54.40
2018-09-28T20:35:10.276Z,54.10
2018-09-28T20:37:40.408Z,54.50
2018-09-28T20:40:08.793Z,54.40
2018-09-28T20:42:37.962Z,54.50
2018-09-28T20:45:06.685Z,54.20
2018-09-28T20:50:02.617Z,54.80
2018-09-28T20:52:30.337Z,54.60
2018-09-28T20:54:58.478Z,55.20
2018-09-28T20:57:26.019Z,54.30
2018-09-28T20:59:53.756Z,53.90
2018-09-28T21:02:21.529Z,53.20
2018-09-28T21:04:49.230Z,53.40
2018-09-28T21:07:16.876Z,53.20
2018-09-28T21:09:44.583Z,53.10
2018-09-28T21:12:12.138Z,52.80
2018-09-28T21:14:39.805Z,53.10
2018-09-28T21:17:07.479Z,52.80
2018-09-28T21:19:35.016Z,52.80
2018-09-28T21:22:02.624Z,51.70
2018-09-28T21:24:33.002Z,51.70
2018-09-28T21:27:00.573Z,51.60
2018-09-28T21:29:29.725Z,51.40
2018-09-28T21:31:57.433Z,51.00
2018-09-28T21:34:27.073Z,51.00
2018-09-28T21:36:54.611Z,51.50
2018-09-28T21:39:22.442Z,51.20
2018-09-28T21:41:50.861Z,51.30
2018-09-28T21:44:18.958Z,50.10
2018-09-28T21:46:46.507Z,51.10
2018-09-28T21:49:14.108Z,51.00
2018-09-28T21:51:41.742Z,50.90
2018-09-28T21:54:09.540Z,51.00
2018-09-28T21:56:37.468Z,50.90
2018-09-28T21:59:05.082Z,50.10
2018-09-28T22:01:32.705Z,50.10
2018-09-28T22:04:00.224Z,49.20
2018-09-28T22:06:27.868Z,49.40
2018-09-28T22:08:56.464Z,49.20
2018-09-28T22:11:24.732Z,48.70
2018-09-28T22:13:52.472Z,49.40
2018-09-28T22:18:47.574Z,49.10
2018-09-28T22:21:15.071Z,49.30
2018-09-28T22:23:42.644Z,49.60
2018-09-28T22:26:10.219Z,49.20
2018-09-28T22:28:38.467Z,49.30
2018-09-28T22:31:06.064Z,49.70
2018-09-28T22:33:33.704Z,50.10
2018-09-28T22:36:01.568Z,49.80
2018-09-28T22:38:29.794Z,49.20
2018-09-28T22:40:57.340Z,49.70
2018-09-28T22:43:25.627Z,49.30
2018-09-28T22:45:53.192Z,49.60
2018-09-28T22:48:20.878Z,49.60
2018-09-28T22:50:48.582Z,50.10
2018-09-28T22:53:16.215Z,50.10
2018-09-28T22:55:43.740Z,49.60
2018-09-28T22:58:11.332Z,48.90
2018-09-28T23:00:38.957Z,48.60
2018-09-28T23:03:06.711Z,48.50
2018-09-28T23:05:34.465Z,49.00
2018-09-28T23:08:02.020Z,48.70
2018-09-28T23:10:29.851Z,48.90
2018-09-28T23:12:57.386Z,48.90
2018-09-28T23:15:25.196Z,48.90
2018-09-28T23:17:52.669Z,49.20
2018-09-28T23:20:20.162Z,48.50
2018-09-28T23:22:48.083Z,48.70
2018-09-28T23:25:16.174Z,48.00
2018-09-28T23:27:43.704Z,48.30
2018-09-28T23:32:38.747Z,48.00
2018-09-28T23:35:06.452Z,48.50
2018-09-28T23:37:33.998Z,47.90
2018-09-28T23:40:01.890Z,48.50
2018-09-28T23:42:29.769Z,48.70
2018-09-28T23:44:57.360Z,48.60
2018-09-28T23:47:25.165Z,48.60
2018-09-28T23:49:52.672Z,48.70
2018-09-28T23:54:47.775Z,50.30
2018-09-28T23:57:15.221Z,50.30
2018-09-28T23:59:43.813Z,50.10
